sensor_id;sensor_type;location;lat;lon;timestamp;P1;durP1;ratioP1;P2;durP2;ratioP2
16731;SDS011;8484;50.904;9.192;2022-11-20T00:01:46;8.43;;;6.43;;
16731;SDS011;8484;50.904;9.192;2022-11-20T00:04:32;8.30;;;6.17;;
16731;SDS011;8484;50.904;9.192;2022-11-20T00:07:18;8.50;;;6.20;;
16731;SDS011;8484;50.904;9.192;2022-11-20T00:10:03;8.47;;;6.97;;
16731;SDS011;8484;50.904;9.192;2022-11-20T00:12:49;9.50;;;6.83;;
16731;SDS011;8484;50.904;9.192;2022-11-20T00:15:36;9.00;;;6.47;;
16731;SDS011;8484;50.904;9.192;2022-11-20T00:18:22;8.07;;;6.40;;
16731;SDS011;8484;50.904;9.192;2022-11-20T00:21:10;8.57;;;6.47;;
16731;SDS011;8484;50.904;9.192;2022-11-20T00:23:57;10.10;;;7.27;;
16731;SDS011;8484;50.904;9.192;2022-11-20T00:26:43;9.83;;;6.90;;
16731;SDS011;8484;50.904;9.192;2022-11-20T00:29:28;7.90;;;6.10;;
16731;SDS011;8484;50.904;9.192;2022-11-20T00:32:15;8.87;;;6.53;;
16731;SDS011;8484;50.904;9.192;2022-11-20T00:35:01;9.00;;;6.70;;
16731;SDS011;8484;50.904;9.192;2022-11-20T00:37:46;10.07;;;6.97;;
16731;SDS011;8484;50.904;9.192;2022-11-20T00:40:32;10.17;;;7.07;;
16731;SDS011;8484;50.904;9.192;2022-11-20T00:43:17;10.47;;;7.27;;
16731;SDS011;8484;50.904;9.192;2022-11-20T00:46:04;8.73;;;6.80;;
16731;SDS011;8484;50.904;9.192;2022-11-20T00:48:52;9.47;;;6.87;;
16731;SDS011;8484;50.904;9.192;2022-11-20T00:51:37;8.97;;;6.73;;
16731;SDS011;8484;50.904;9.192;2022-11-20T00:54:23;9.33;;;7.10;;
16731;SDS011;8484;50.904;9.192;2022-11-20T00:57:09;9.10;;;6.53;;
16731;SDS011;8484;50.904;9.192;2022-11-20T00:59:54;8.93;;;6.57;;
16731;SDS011;8484;50.904;9.192;2022-11-20T01:02:40;15.70;;;6.90;;
16731;SDS011;8484;50.904;9.192;2022-11-20T01:05:26;9.90;;;7.13;;
16731;SDS011;8484;50.904;9.192;2022-11-20T01:08:12;8.53;;;6.67;;
16731;SDS011;8484;50.904;9.192;2022-11-20T01:10:58;9.77;;;6.20;;
16731;SDS011;8484;50.904;9.192;2022-11-20T01:13:45;9.63;;;6.77;;
16731;SDS011;8484;50.904;9.192;2022-11-20T01:16:34;9.40;;;6.83;;
16731;SDS011;8484;50.904;9.192;2022-11-20T01:19:21;9.33;;;7.03;;
16731;SDS011;8484;50.904;9.192;2022-11-20T01:22:09;9.73;;;6.90;;
16731;SDS011;8484;50.904;9.192;2022-11-20T01:24:54;8.80;;;6.47;;
16731;SDS011;8484;50.904;9.192;2022-11-20T01:27:40;8.73;;;6.40;;
16731;SDS011;8484;50.904;9.192;2022-11-20T01:30:25;7.90;;;6.10;;
16731;SDS011;8484;50.904;9.192;2022-11-20T01:33:11;8.43;;;7.03;;
16731;SDS011;8484;50.904;9.192;2022-11-20T01:36:02;8.03;;;6.30;;
16731;SDS011;8484;50.904;9.192;2022-11-20T01:38:52;8.67;;;6.53;;
16731;SDS011;8484;50.904;9.192;2022-11-20T01:41:38;9.57;;;6.93;;
16731;SDS011;8484;50.904;9.192;2022-11-20T01:44:52;9.00;;;6.10;;
16731;SDS011;8484;50.904;9.192;2022-11-20T01:47:39;8.77;;;6.47;;
16731;SDS011;8484;50.904;9.192;2022-11-20T01:50:28;8.67;;;6.47;;
16731;SDS011;8484;50.904;9.192;2022-11-20T01:53:15;7.93;;;6.23;;
16731;SDS011;8484;50.904;9.192;2022-11-20T01:56:05;8.17;;;6.23;;
16731;SDS011;8484;50.904;9.192;2022-11-20T01:58:54;8.10;;;6.47;;
16731;SDS011;8484;50.904;9.192;2022-11-20T02:01:43;8.83;;;6.80;;
16731;SDS011;8484;50.904;9.192;2022-11-20T02:04:29;8.80;;;6.87;;
16731;SDS011;8484;50.904;9.192;2022-11-20T02:07:14;8.30;;;6.47;;
16731;SDS011;8484;50.904;9.192;2022-11-20T02:10:01;7.37;;;6.10;;
16731;SDS011;8484;50.904;9.192;2022-11-20T02:12:48;9.30;;;6.50;;
16731;SDS011;8484;50.904;9.192;2022-11-20T02:15:52;7.37;;;5.57;;
16731;SDS011;8484;50.904;9.192;2022-11-20T02:18:38;10.03;;;7.40;;
16731;SDS011;8484;50.904;9.192;2022-11-20T02:21:27;9.87;;;6.30;;
16731;SDS011;8484;50.904;9.192;2022-11-20T02:24:19;7.77;;;6.13;;
16731;SDS011;8484;50.904;9.192;2022-11-20T02:27:06;7.33;;;5.97;;
16731;SDS011;8484;50.904;9.192;2022-11-20T02:29:55;8.63;;;6.27;;
16731;SDS011;8484;50.904;9.192;2022-11-20T02:32:44;7.77;;;6.10;;
16731;SDS011;8484;50.904;9.192;2022-11-20T02:35:39;8.20;;;6.20;;
16731;SDS011;8484;50.904;9.192;2022-11-20T02:38:27;8.90;;;6.47;;
16731;SDS011;8484;50.904;9.192;2022-11-20T02:41:13;8.83;;;6.27;;
16731;SDS011;8484;50.904;9.192;2022-11-20T02:43:59;8.13;;;6.07;;
16731;SDS011;8484;50.904;9.192;2022-11-20T02:46:44;8.53;;;6.63;;
16731;SDS011;8484;50.904;9.192;2022-11-20T02:49:30;8.13;;;6.40;;
16731;SDS011;8484;50.904;9.192;2022-11-20T02:52:15;9.13;;;6.63;;
16731;SDS011;8484;50.904;9.192;2022-11-20T02:55:01;7.77;;;6.27;;
16731;SDS011;8484;50.904;9.192;2022-11-20T02:57:48;7.00;;;5.77;;
16731;SDS011;8484;50.904;9.192;2022-11-20T03:00:34;9.40;;;6.33;;
16731;SDS011;8484;50.904;9.192;2022-11-20T03:03:19;8.47;;;6.13;;
16731;SDS011;8484;50.904;9.192;2022-11-20T03:06:05;9.83;;;6.67;;
16731;SDS011;8484;50.904;9.192;2022-11-20T03:08:51;8.17;;;6.30;;
16731;SDS011;8484;50.904;9.192;2022-11-20T03:11:36;8.93;;;6.73;;
16731;SDS011;8484;50.904;9.192;2022-11-20T03:14:23;9.53;;;6.80;;
16731;SDS011;8484;50.904;9.192;2022-11-20T03:17:08;7.37;;;6.33;;
16731;SDS011;8484;50.904;9.192;2022-11-20T03:19:55;9.20;;;7.03;;
16731;SDS011;8484;50.904;9.192;2022-11-20T03:22:40;10.07;;;7.03;;
16731;SDS011;8484;50.904;9.192;2022-11-20T03:25:26;7.80;;;6.50;;
16731;SDS011;8484;50.904;9.192;2022-11-20T03:28:11;9.53;;;7.30;;
16731;SDS011;8484;50.904;9.192;2022-11-20T03:30:58;7.90;;;6.40;;
16731;SDS011;8484;50.904;9.192;2022-11-20T03:33:50;8.70;;;6.93;;
16731;SDS011;8484;50.904;9.192;2022-11-20T03:36:36;8.47;;;6.63;;
16731;SDS011;8484;50.904;9.192;2022-11-20T03:39:22;9.37;;;6.73;;
16731;SDS011;8484;50.904;9.192;2022-11-20T03:42:08;8.10;;;6.47;;
16731;SDS011;8484;50.904;9.192;2022-11-20T03:45:15;9.70;;;7.00;;
16731;SDS011;8484;50.904;9.192;2022-11-20T03:48:04;8.67;;;6.97;;
16731;SDS011;8484;50.904;9.192;2022-11-20T03:50:49;8.30;;;6.43;;
16731;SDS011;8484;50.904;9.192;2022-11-20T03:53:35;9.00;;;6.90;;
16731;SDS011;8484;50.904;9.192;2022-11-20T03:56:22;9.57;;;6.60;;
16731;SDS011;8484;50.904;9.192;2022-11-20T03:59:09;8.20;;;6.63;;
16731;SDS011;8484;50.904;9.192;2022-11-20T04:01:55;9.57;;;7.07;;
16731;SDS011;8484;50.904;9.192;2022-11-20T04:04:42;9.93;;;7.17;;
16731;SDS011;8484;50.904;9.192;2022-11-20T04:07:27;7.13;;;6.43;;
16731;SDS011;8484;50.904;9.192;2022-11-20T04:10:13;8.43;;;6.50;;
16731;SDS011;8484;50.904;9.192;2022-11-20T04:12:58;12.47;;;7.03;;
16731;SDS011;8484;50.904;9.192;2022-11-20T04:15:44;8.60;;;6.57;;
16731;SDS011;8484;50.904;9.192;2022-11-20T04:18:29;8.63;;;6.97;;
16731;SDS011;8484;50.904;9.192;2022-11-20T04:21:16;9.03;;;7.30;;
16731;SDS011;8484;50.904;9.192;2022-11-20T04:24:02;9.03;;;7.20;;
16731;SDS011;8484;50.904;9.192;2022-11-20T04:26:48;10.93;;;6.80;;
16731;SDS011;8484;50.904;9.192;2022-11-20T04:29:33;9.97;;;7.30;;
16731;SDS011;8484;50.904;9.192;2022-11-20T04:32:19;8.97;;;7.30;;
16731;SDS011;8484;50.904;9.192;2022-11-20T04:35:04;7.97;;;6.50;;
16731;SDS011;8484;50.904;9.192;2022-11-20T04:37:52;9.23;;;6.80;;
16731;SDS011;8484;50.904;9.192;2022-11-20T04:40:37;9.97;;;7.43;;
16731;SDS011;8484;50.904;9.192;2022-11-20T04:43:23;9.17;;;6.80;;
16731;SDS011;8484;50.904;9.192;2022-11-20T04:46:08;8.20;;;6.63;;
16731;SDS011;8484;50.904;9.192;2022-11-20T04:48:54;8.47;;;6.53;;
16731;SDS011;8484;50.904;9.192;2022-11-20T04:51:39;9.90;;;6.53;;
16731;SDS011;8484;50.904;9.192;2022-11-20T04:54:26;7.83;;;5.97;;
16731;SDS011;8484;50.904;9.192;2022-11-20T04:57:14;9.47;;;6.70;;
16731;SDS011;8484;50.904;9.192;2022-11-20T04:59:59;8.20;;;6.70;;
16731;SDS011;8484;50.904;9.192;2022-11-20T05:02:45;10.53;;;7.97;;
16731;SDS011;8484;50.904;9.192;2022-11-20T05:05:31;11.20;;;8.40;;
16731;SDS011;8484;50.904;9.192;2022-11-20T05:08:16;10.50;;;7.80;;
16731;SDS011;8484;50.904;9.192;2022-11-20T05:11:03;9.70;;;7.67;;
16731;SDS011;8484;50.904;9.192;2022-11-20T05:13:51;13.37;;;8.00;;
16731;SDS011;8484;50.904;9.192;2022-11-20T05:16:36;10.97;;;7.60;;
16731;SDS011;8484;50.904;9.192;2022-11-20T05:19:22;11.33;;;8.47;;
16731;SDS011;8484;50.904;9.192;2022-11-20T05:22:07;12.27;;;8.53;;
16731;SDS011;8484;50.904;9.192;2022-11-20T05:24:53;12.63;;;8.63;;
16731;SDS011;8484;50.904;9.192;2022-11-20T05:27:40;11.53;;;8.83;;
16731;SDS011;8484;50.904;9.192;2022-11-20T05:30:26;13.30;;;9.10;;
16731;SDS011;8484;50.904;9.192;2022-11-20T05:33:11;12.93;;;8.97;;
16731;SDS011;8484;50.904;9.192;2022-11-20T05:35:57;12.70;;;8.53;;
16731;SDS011;8484;50.904;9.192;2022-11-20T05:38:44;12.13;;;9.00;;
16731;SDS011;8484;50.904;9.192;2022-11-20T05:41:30;12.00;;;8.67;;
16731;SDS011;8484;50.904;9.192;2022-11-20T05:44:18;11.03;;;8.47;;
16731;SDS011;8484;50.904;9.192;2022-11-20T05:47:04;11.37;;;9.23;;
16731;SDS011;8484;50.904;9.192;2022-11-20T05:49:50;12.27;;;8.47;;
16731;SDS011;8484;50.904;9.192;2022-11-20T05:52:35;12.43;;;8.80;;
16731;SDS011;8484;50.904;9.192;2022-11-20T05:55:21;11.70;;;8.60;;
16731;SDS011;8484;50.904;9.192;2022-11-20T05:58:07;11.73;;;8.07;;
16731;SDS011;8484;50.904;9.192;2022-11-20T06:00:54;11.43;;;8.23;;
16731;SDS011;8484;50.904;9.192;2022-11-20T06:03:39;9.07;;;7.50;;
16731;SDS011;8484;50.904;9.192;2022-11-20T06:06:29;8.73;;;7.30;;
16731;SDS011;8484;50.904;9.192;2022-11-20T06:09:15;10.03;;;7.73;;
16731;SDS011;8484;50.904;9.192;2022-11-20T06:12:00;9.50;;;7.30;;
16731;SDS011;8484;50.904;9.192;2022-11-20T06:14:45;8.60;;;7.33;;
16731;SDS011;8484;50.904;9.192;2022-11-20T06:17:32;11.00;;;7.93;;
16731;SDS011;8484;50.904;9.192;2022-11-20T06:20:18;10.87;;;8.20;;
16731;SDS011;8484;50.904;9.192;2022-11-20T06:23:03;10.37;;;8.43;;
16731;SDS011;8484;50.904;9.192;2022-11-20T06:25:49;10.70;;;8.50;;
16731;SDS011;8484;50.904;9.192;2022-11-20T06:28:34;11.50;;;8.73;;
16731;SDS011;8484;50.904;9.192;2022-11-20T06:31:22;9.97;;;8.47;;
16731;SDS011;8484;50.904;9.192;2022-11-20T06:34:10;10.97;;;9.07;;
16731;SDS011;8484;50.904;9.192;2022-11-20T06:36:55;11.00;;;8.77;;
16731;SDS011;8484;50.904;9.192;2022-11-20T06:39:41;13.00;;;9.40;;
16731;SDS011;8484;50.904;9.192;2022-11-20T06:42:26;13.33;;;9.03;;
16731;SDS011;8484;50.904;9.192;2022-11-20T06:45:12;13.13;;;8.50;;
16731;SDS011;8484;50.904;9.192;2022-11-20T06:47:57;12.33;;;9.43;;
16731;SDS011;8484;50.904;9.192;2022-11-20T06:50:44;14.07;;;9.73;;
16731;SDS011;8484;50.904;9.192;2022-11-20T06:53:29;11.40;;;8.83;;
16731;SDS011;8484;50.904;9.192;2022-11-20T06:56:15;14.03;;;9.80;;
16731;SDS011;8484;50.904;9.192;2022-11-20T06:59:03;14.40;;;9.77;;
16731;SDS011;8484;50.904;9.192;2022-11-20T07:01:49;11.30;;;8.73;;
16731;SDS011;8484;50.904;9.192;2022-11-20T07:04:35;15.30;;;9.83;;
16731;SDS011;8484;50.904;9.192;2022-11-20T07:07:22;13.40;;;9.57;;
16731;SDS011;8484;50.904;9.192;2022-11-20T07:10:08;14.53;;;9.50;;
16731;SDS011;8484;50.904;9.192;2022-11-20T07:12:54;17.43;;;10.07;;
16731;SDS011;8484;50.904;9.192;2022-11-20T07:15:40;15.77;;;10.63;;
16731;SDS011;8484;50.904;9.192;2022-11-20T07:18:25;18.20;;;11.80;;
16731;SDS011;8484;50.904;9.192;2022-11-20T07:21:11;19.40;;;11.10;;
16731;SDS011;8484;50.904;9.192;2022-11-20T07:23:58;18.83;;;11.57;;
16731;SDS011;8484;50.904;9.192;2022-11-20T07:26:45;22.17;;;12.23;;
16731;SDS011;8484;50.904;9.192;2022-11-20T07:29:32;24.57;;;12.50;;
16731;SDS011;8484;50.904;9.192;2022-11-20T07:32:18;20.90;;;12.00;;
16731;SDS011;8484;50.904;9.192;2022-11-20T07:35:04;22.50;;;13.17;;
16731;SDS011;8484;50.904;9.192;2022-11-20T07:37:50;18.50;;;12.07;;
16731;SDS011;8484;50.904;9.192;2022-11-20T07:40:37;18.43;;;11.87;;
16731;SDS011;8484;50.904;9.192;2022-11-20T07:43:22;19.73;;;11.67;;
16731;SDS011;8484;50.904;9.192;2022-11-20T07:46:07;18.47;;;11.63;;
16731;SDS011;8484;50.904;9.192;2022-11-20T07:48:53;19.90;;;12.60;;
16731;SDS011;8484;50.904;9.192;2022-11-20T07:51:39;21.60;;;12.80;;
16731;SDS011;8484;50.904;9.192;2022-11-20T07:54:24;25.17;;;13.60;;
16731;SDS011;8484;50.904;9.192;2022-11-20T07:57:11;29.40;;;14.73;;
16731;SDS011;8484;50.904;9.192;2022-11-20T07:59:57;25.93;;;13.97;;
16731;SDS011;8484;50.904;9.192;2022-11-20T08:02:42;26.67;;;14.00;;
16731;SDS011;8484;50.904;9.192;2022-11-20T08:05:28;20.07;;;12.37;;
16731;SDS011;8484;50.904;9.192;2022-11-20T08:08:13;21.67;;;12.20;;
16731;SDS011;8484;50.904;9.192;2022-11-20T08:10:59;25.00;;;14.00;;
16731;SDS011;8484;50.904;9.192;2022-11-20T08:14:00;23.87;;;12.63;;
16731;SDS011;8484;50.904;9.192;2022-11-20T08:16:58;21.97;;;12.33;;
16731;SDS011;8484;50.904;9.192;2022-11-20T08:19:43;22.57;;;12.57;;
16731;SDS011;8484;50.904;9.192;2022-11-20T08:22:29;23.07;;;12.23;;
16731;SDS011;8484;50.904;9.192;2022-11-20T08:25:14;23.07;;;13.50;;
16731;SDS011;8484;50.904;9.192;2022-11-20T08:28:00;23.47;;;13.67;;
16731;SDS011;8484;50.904;9.192;2022-11-20T08:30:49;20.60;;;13.17;;
16731;SDS011;8484;50.904;9.192;2022-11-20T08:33:34;25.50;;;12.73;;
16731;SDS011;8484;50.904;9.192;2022-11-20T08:36:20;22.40;;;12.00;;
16731;SDS011;8484;50.904;9.192;2022-11-20T08:39:06;23.63;;;13.03;;
16731;SDS011;8484;50.904;9.192;2022-11-20T08:41:52;26.77;;;13.37;;
16731;SDS011;8484;50.904;9.192;2022-11-20T08:44:37;25.83;;;12.87;;
16731;SDS011;8484;50.904;9.192;2022-11-20T08:47:24;22.77;;;12.70;;
16731;SDS011;8484;50.904;9.192;2022-11-20T08:50:10;26.37;;;13.80;;
16731;SDS011;8484;50.904;9.192;2022-11-20T08:53:01;24.20;;;13.30;;
16731;SDS011;8484;50.904;9.192;2022-11-20T08:55:47;28.40;;;14.43;;
16731;SDS011;8484;50.904;9.192;2022-11-20T08:58:32;29.43;;;14.77;;
16731;SDS011;8484;50.904;9.192;2022-11-20T09:01:18;25.57;;;14.87;;
16731;SDS011;8484;50.904;9.192;2022-11-20T09:04:06;27.63;;;14.30;;
16731;SDS011;8484;50.904;9.192;2022-11-20T09:06:51;33.83;;;15.63;;
16731;SDS011;8484;50.904;9.192;2022-11-20T09:09:37;30.97;;;15.90;;
16731;SDS011;8484;50.904;9.192;2022-11-20T09:12:22;34.43;;;15.27;;
16731;SDS011;8484;50.904;9.192;2022-11-20T09:15:08;30.97;;;15.20;;
16731;SDS011;8484;50.904;9.192;2022-11-20T09:17:55;26.57;;;14.40;;
16731;SDS011;8484;50.904;9.192;2022-11-20T09:20:43;29.70;;;14.23;;
16731;SDS011;8484;50.904;9.192;2022-11-20T09:23:30;29.07;;;15.13;;
16731;SDS011;8484;50.904;9.192;2022-11-20T09:26:17;32.70;;;15.53;;
16731;SDS011;8484;50.904;9.192;2022-11-20T09:29:02;32.00;;;16.33;;
16731;SDS011;8484;50.904;9.192;2022-11-20T09:31:48;31.07;;;14.83;;
16731;SDS011;8484;50.904;9.192;2022-11-20T09:34:34;33.93;;;15.83;;
16731;SDS011;8484;50.904;9.192;2022-11-20T09:37:21;32.30;;;15.13;;
16731;SDS011;8484;50.904;9.192;2022-11-20T09:40:08;32.57;;;16.07;;
16731;SDS011;8484;50.904;9.192;2022-11-20T09:43:07;34.53;;;15.90;;
16731;SDS011;8484;50.904;9.192;2022-11-20T09:46:02;37.20;;;15.80;;
16731;SDS011;8484;50.904;9.192;2022-11-20T09:49:04;31.67;;;15.97;;
16731;SDS011;8484;50.904;9.192;2022-11-20T09:52:05;35.63;;;17.17;;
16731;SDS011;8484;50.904;9.192;2022-11-20T09:55:03;39.03;;;16.80;;
16731;SDS011;8484;50.904;9.192;2022-11-20T09:57:53;36.50;;;15.43;;
16731;SDS011;8484;50.904;9.192;2022-11-20T10:00:39;32.43;;;16.43;;
16731;SDS011;8484;50.904;9.192;2022-11-20T10:03:26;30.80;;;16.33;;
16731;SDS011;8484;50.904;9.192;2022-11-20T10:06:28;31.77;;;17.10;;
16731;SDS011;8484;50.904;9.192;2022-11-20T10:09:18;31.03;;;16.30;;
16731;SDS011;8484;50.904;9.192;2022-11-20T10:12:13;26.80;;;14.67;;
16731;SDS011;8484;50.904;9.192;2022-11-20T10:15:07;30.07;;;15.13;;
16731;SDS011;8484;50.904;9.192;2022-11-20T10:18:11;27.83;;;14.87;;
16731;SDS011;8484;50.904;9.192;2022-11-20T10:21:07;27.43;;;14.13;;
16731;SDS011;8484;50.904;9.192;2022-11-20T10:24:03;27.23;;;14.13;;
16731;SDS011;8484;50.904;9.192;2022-11-20T10:27:09;24.67;;;14.23;;
16731;SDS011;8484;50.904;9.192;2022-11-20T10:30:16;28.60;;;14.80;;
16731;SDS011;8484;50.904;9.192;2022-11-20T10:33:06;31.07;;;14.50;;
16731;SDS011;8484;50.904;9.192;2022-11-20T10:36:00;23.37;;;13.67;;
16731;SDS011;8484;50.904;9.192;2022-11-20T10:38:54;25.63;;;14.43;;
16731;SDS011;8484;50.904;9.192;2022-11-20T10:41:44;27.23;;;14.97;;
16731;SDS011;8484;50.904;9.192;2022-11-20T10:44:34;26.03;;;14.20;;
16731;SDS011;8484;50.904;9.192;2022-11-20T10:47:40;26.33;;;13.37;;
16731;SDS011;8484;50.904;9.192;2022-11-20T10:50:26;24.30;;;14.03;;
16731;SDS011;8484;50.904;9.192;2022-11-20T10:53:16;23.97;;;13.60;;
16731;SDS011;8484;50.904;9.192;2022-11-20T10:56:13;23.23;;;13.47;;
16731;SDS011;8484;50.904;9.192;2022-11-20T10:59:10;24.63;;;13.97;;
16731;SDS011;8484;50.904;9.192;2022-11-20T11:02:14;20.40;;;12.10;;
16731;SDS011;8484;50.904;9.192;2022-11-20T11:05:07;20.93;;;12.33;;
16731;SDS011;8484;50.904;9.192;2022-11-20T11:08:00;20.10;;;12.50;;
16731;SDS011;8484;50.904;9.192;2022-11-20T11:10:48;21.27;;;13.23;;
16731;SDS011;8484;50.904;9.192;2022-11-20T11:13:37;23.47;;;13.53;;
16731;SDS011;8484;50.904;9.192;2022-11-20T11:16:24;23.53;;;14.47;;
16731;SDS011;8484;50.904;9.192;2022-11-20T11:19:11;20.30;;;13.60;;
16731;SDS011;8484;50.904;9.192;2022-11-20T11:21:59;21.07;;;13.90;;
16731;SDS011;8484;50.904;9.192;2022-11-20T11:24:51;22.17;;;14.00;;
16731;SDS011;8484;50.904;9.192;2022-11-20T11:27:45;19.53;;;13.33;;
16731;SDS011;8484;50.904;9.192;2022-11-20T11:30:40;20.53;;;13.00;;
16731;SDS011;8484;50.904;9.192;2022-11-20T11:33:27;23.37;;;13.43;;
16731;SDS011;8484;50.904;9.192;2022-11-20T11:36:16;18.10;;;12.50;;
16731;SDS011;8484;50.904;9.192;2022-11-20T11:39:08;21.17;;;12.97;;
16731;SDS011;8484;50.904;9.192;2022-11-20T11:41:59;19.53;;;13.13;;
16731;SDS011;8484;50.904;9.192;2022-11-20T11:44:46;19.60;;;12.63;;
16731;SDS011;8484;50.904;9.192;2022-11-20T11:47:51;17.27;;;11.93;;
16731;SDS011;8484;50.904;9.192;2022-11-20T11:50:47;18.50;;;12.27;;
16731;SDS011;8484;50.904;9.192;2022-11-20T11:53:33;20.23;;;13.20;;
16731;SDS011;8484;50.904;9.192;2022-11-20T11:56:27;16.80;;;11.83;;
16731;SDS011;8484;50.904;9.192;2022-11-20T11:59:15;16.63;;;11.37;;
16731;SDS011;8484;50.904;9.192;2022-11-20T12:02:12;21.30;;;11.90;;
16731;SDS011;8484;50.904;9.192;2022-11-20T12:05:14;15.83;;;10.33;;
16731;SDS011;8484;50.904;9.192;2022-11-20T12:08:04;17.10;;;10.90;;
16731;SDS011;8484;50.904;9.192;2022-11-20T12:10:56;15.50;;;10.60;;
16731;SDS011;8484;50.904;9.192;2022-11-20T12:13:49;14.07;;;10.30;;
16731;SDS011;8484;50.904;9.192;2022-11-20T12:16:38;13.83;;;10.07;;
16731;SDS011;8484;50.904;9.192;2022-11-20T12:19:25;13.43;;;10.10;;
16731;SDS011;8484;50.904;9.192;2022-11-20T12:22:14;15.57;;;10.60;;
16731;SDS011;8484;50.904;9.192;2022-11-20T12:25:06;12.10;;;9.13;;
16731;SDS011;8484;50.904;9.192;2022-11-20T12:28:02;15.00;;;10.30;;
16731;SDS011;8484;50.904;9.192;2022-11-20T12:31:14;15.70;;;11.00;;
16731;SDS011;8484;50.904;9.192;2022-11-20T12:34:17;16.40;;;10.80;;
16731;SDS011;8484;50.904;9.192;2022-11-20T12:37:12;13.73;;;10.30;;
16731;SDS011;8484;50.904;9.192;2022-11-20T12:40:12;15.33;;;10.67;;
16731;SDS011;8484;50.904;9.192;2022-11-20T12:43:11;14.00;;;10.50;;
16731;SDS011;8484;50.904;9.192;2022-11-20T12:46:24;13.20;;;10.20;;
16731;SDS011;8484;50.904;9.192;2022-11-20T12:49:19;13.13;;;8.80;;
16731;SDS011;8484;50.904;9.192;2022-11-20T12:52:16;12.90;;;9.70;;
16731;SDS011;8484;50.904;9.192;2022-11-20T12:55:15;14.43;;;10.07;;
16731;SDS011;8484;50.904;9.192;2022-11-20T12:58:08;12.33;;;9.43;;
16731;SDS011;8484;50.904;9.192;2022-11-20T13:01:02;12.30;;;9.27;;
16731;SDS011;8484;50.904;9.192;2022-11-20T13:04:18;14.13;;;9.53;;
16731;SDS011;8484;50.904;9.192;2022-11-20T13:07:28;14.23;;;9.70;;
16731;SDS011;8484;50.904;9.192;2022-11-20T13:10:16;15.47;;;10.23;;
16731;SDS011;8484;50.904;9.192;2022-11-20T13:13:09;17.00;;;10.77;;
16731;SDS011;8484;50.904;9.192;2022-11-20T13:16:02;15.23;;;10.50;;
16731;SDS011;8484;50.904;9.192;2022-11-20T13:18:52;14.97;;;10.07;;
16731;SDS011;8484;50.904;9.192;2022-11-20T13:21:40;14.43;;;9.77;;
16731;SDS011;8484;50.904;9.192;2022-11-20T13:24:29;13.43;;;9.60;;
16731;SDS011;8484;50.904;9.192;2022-11-20T13:27:20;16.70;;;10.40;;
16731;SDS011;8484;50.904;9.192;2022-11-20T13:30:14;13.53;;;9.83;;
16731;SDS011;8484;50.904;9.192;2022-11-20T13:33:02;15.03;;;9.87;;
16731;SDS011;8484;50.904;9.192;2022-11-20T13:35:55;16.57;;;10.67;;
16731;SDS011;8484;50.904;9.192;2022-11-20T13:38:44;17.30;;;10.47;;
16731;SDS011;8484;50.904;9.192;2022-11-20T13:41:33;17.20;;;10.40;;
16731;SDS011;8484;50.904;9.192;2022-11-20T13:44:23;18.83;;;10.97;;
16731;SDS011;8484;50.904;9.192;2022-11-20T13:50:08;15.90;;;10.17;;
16731;SDS011;8484;50.904;9.192;2022-11-20T13:52:55;15.97;;;10.07;;
16731;SDS011;8484;50.904;9.192;2022-11-20T13:55:53;19.57;;;11.33;;
16731;SDS011;8484;50.904;9.192;2022-11-20T13:58:45;19.87;;;10.90;;
16731;SDS011;8484;50.904;9.192;2022-11-20T14:01:38;17.30;;;11.10;;
16731;SDS011;8484;50.904;9.192;2022-11-20T14:04:25;22.03;;;11.87;;
16731;SDS011;8484;50.904;9.192;2022-11-20T14:07:13;17.27;;;11.27;;
16731;SDS011;8484;50.904;9.192;2022-11-20T14:10:00;17.63;;;11.73;;
16731;SDS011;8484;50.904;9.192;2022-11-20T14:12:47;18.90;;;12.00;;
16731;SDS011;8484;50.904;9.192;2022-11-20T14:15:33;18.20;;;11.30;;
16731;SDS011;8484;50.904;9.192;2022-11-20T14:18:20;17.30;;;11.13;;
16731;SDS011;8484;50.904;9.192;2022-11-20T14:21:07;21.73;;;11.63;;
16731;SDS011;8484;50.904;9.192;2022-11-20T14:24:02;18.80;;;12.10;;
16731;SDS011;8484;50.904;9.192;2022-11-20T14:26:49;16.03;;;10.77;;
16731;SDS011;8484;50.904;9.192;2022-11-20T14:29:37;17.03;;;11.60;;
16731;SDS011;8484;50.904;9.192;2022-11-20T14:32:25;19.73;;;11.77;;
16731;SDS011;8484;50.904;9.192;2022-11-20T14:35:14;18.43;;;11.30;;
16731;SDS011;8484;50.904;9.192;2022-11-20T14:38:08;16.23;;;10.73;;
16731;SDS011;8484;50.904;9.192;2022-11-20T14:41:05;17.10;;;11.37;;
16731;SDS011;8484;50.904;9.192;2022-11-20T14:43:53;16.93;;;10.80;;
16731;SDS011;8484;50.904;9.192;2022-11-20T14:46:42;17.17;;;10.57;;
16731;SDS011;8484;50.904;9.192;2022-11-20T14:49:29;15.67;;;10.23;;
16731;SDS011;8484;50.904;9.192;2022-11-20T14:52:16;15.93;;;10.03;;
16731;SDS011;8484;50.904;9.192;2022-11-20T14:55:04;14.93;;;9.33;;
16731;SDS011;8484;50.904;9.192;2022-11-20T14:57:54;18.47;;;10.70;;
16731;SDS011;8484;50.904;9.192;2022-11-20T15:00:40;16.00;;;10.27;;
16731;SDS011;8484;50.904;9.192;2022-11-20T15:03:35;18.10;;;10.40;;
16731;SDS011;8484;50.904;9.192;2022-11-20T15:06:25;17.17;;;10.83;;
16731;SDS011;8484;50.904;9.192;2022-11-20T15:09:12;16.07;;;10.37;;
16731;SDS011;8484;50.904;9.192;2022-11-20T15:11:59;16.97;;;10.70;;
16731;SDS011;8484;50.904;9.192;2022-11-20T15:14:46;20.43;;;10.77;;
16731;SDS011;8484;50.904;9.192;2022-11-20T15:17:32;17.40;;;10.90;;
16731;SDS011;8484;50.904;9.192;2022-11-20T15:20:23;14.87;;;10.23;;
16731;SDS011;8484;50.904;9.192;2022-11-20T15:23:13;16.77;;;10.47;;
16731;SDS011;8484;50.904;9.192;2022-11-20T15:25:59;15.93;;;9.80;;
16731;SDS011;8484;50.904;9.192;2022-11-20T15:28:45;14.93;;;9.03;;
16731;SDS011;8484;50.904;9.192;2022-11-20T15:31:33;17.83;;;9.97;;
16731;SDS011;8484;50.904;9.192;2022-11-20T15:34:18;14.43;;;8.87;;
16731;SDS011;8484;50.904;9.192;2022-11-20T15:37:05;14.77;;;9.20;;
16731;SDS011;8484;50.904;9.192;2022-11-20T15:39:50;14.93;;;8.53;;
16731;SDS011;8484;50.904;9.192;2022-11-20T15:42:36;16.37;;;9.97;;
16731;SDS011;8484;50.904;9.192;2022-11-20T15:45:21;16.63;;;9.83;;
16731;SDS011;8484;50.904;9.192;2022-11-20T15:48:08;13.57;;;8.90;;
16731;SDS011;8484;50.904;9.192;2022-11-20T15:50:56;13.13;;;9.80;;
16731;SDS011;8484;50.904;9.192;2022-11-20T15:53:47;17.07;;;10.73;;
16731;SDS011;8484;50.904;9.192;2022-11-20T15:56:32;16.17;;;9.97;;
16731;SDS011;8484;50.904;9.192;2022-11-20T15:59:18;15.53;;;10.13;;
16731;SDS011;8484;50.904;9.192;2022-11-20T16:02:05;13.70;;;9.30;;
16731;SDS011;8484;50.904;9.192;2022-11-20T16:04:53;16.33;;;10.00;;
16731;SDS011;8484;50.904;9.192;2022-11-20T16:07:38;15.80;;;10.10;;
16731;SDS011;8484;50.904;9.192;2022-11-20T16:10:25;16.03;;;10.17;;
16731;SDS011;8484;50.904;9.192;2022-11-20T16:13:11;16.57;;;10.50;;
16731;SDS011;8484;50.904;9.192;2022-11-20T16:16:18;16.60;;;10.13;;
16731;SDS011;8484;50.904;9.192;2022-11-20T16:19:06;14.80;;;9.50;;
16731;SDS011;8484;50.904;9.192;2022-11-20T16:21:54;14.73;;;9.63;;
16731;SDS011;8484;50.904;9.192;2022-11-20T16:24:39;15.93;;;9.57;;
16731;SDS011;8484;50.904;9.192;2022-11-20T16:27:26;15.83;;;9.87;;
16731;SDS011;8484;50.904;9.192;2022-11-20T16:30:12;13.87;;;9.37;;
16731;SDS011;8484;50.904;9.192;2022-11-20T16:32:57;13.20;;;9.27;;
16731;SDS011;8484;50.904;9.192;2022-11-20T16:35:43;14.67;;;9.37;;
16731;SDS011;8484;50.904;9.192;2022-11-20T16:38:29;14.13;;;8.90;;
16731;SDS011;8484;50.904;9.192;2022-11-20T16:41:14;14.73;;;9.33;;
16731;SDS011;8484;50.904;9.192;2022-11-20T16:44:02;12.57;;;8.53;;
16731;SDS011;8484;50.904;9.192;2022-11-20T16:46:51;13.43;;;8.30;;
16731;SDS011;8484;50.904;9.192;2022-11-20T16:49:37;12.63;;;8.33;;
16731;SDS011;8484;50.904;9.192;2022-11-20T16:52:22;13.07;;;8.50;;
16731;SDS011;8484;50.904;9.192;2022-11-20T16:55:08;12.03;;;8.00;;
16731;SDS011;8484;50.904;9.192;2022-11-20T16:57:53;10.73;;;8.03;;